Moorhead, MN

6:58 PM CDT on September 01, 2015 (GMT -0500)
Moorhead Municipal | | Change Station
CLOSE
Current Station
Airport
Location: Moorhead,
Elevation: 919 ft
Nearby Weather Stations

Elev 919 ft 46.84 °N, 96.66 °W | Updated 7 minutes ago

Clear
Clear
82 °F
Feels Like 82 °F
N
7
Wind Variable Wind from SE

Today
High -- | Low -- °F
--% Chance of Precip.
Yesterday
High -- | Low -- °F
Precip. -- in
6:46 AM 8:06 PM
Waning Gibbous, 85% visible
Pressure 29.84 in
Visibility 10.0 miles
Clouds Clear
Heat Index 82 °F
Dew Point 57 °F
Humidity 42%
Rainfall 0.00 in
Snow Depth Not available.
UV 1 out of 12
Pollen 10.60 out of 12
Air Quality Not available.
Flu Activity Not available.
METAR KJKJ 012351Z AUTO 14006KT 10SM CLR 28/14 A2984 RMK AO2
Pressure 29.84 in
Visibility 10.0 miles
Clouds Clear
Heat Index 82 °F
Dew Point 57 °F
Humidity 42%
Rainfall 0.00 in
Snow Depth Not available.
UV 1 out of 12
Pollen 10.60 out of 12
Air Quality Not available.
Flu Activity Not available.
METAR KJKJ 012351Z AUTO 14006KT 10SM CLR 28/14 A2984 RMK AO2

10-Day Weather Forecast

×

Almanac

Astronomy

Sep. 01, 2015 Rise Set
Actual Time
Civil Twilight
Nautical Twilight
Astronomical Twilight
Moon
Length of Visible Light
Length of Day
Tomorrow will be .
, % of the Moon is Illuminated

Today's Extremes

State Highs State Lows

Community

WunderPhotos

Upload Photos

1,851,643 photos uploaded!

WunderBlogs® & News

Nearby

Air Quality

  Air Quality AQ Index Pollutant
Not available.

Snow Depth

Station Depth Elevation

Earthquake Activity

City Distance Mag. Time & Date
Minimum magnitude displayed is 2.5.

Coastal Water Temperatures

Place Temperature

Stations

Nearby Weather Stations

Station Location Temp. Windchill Dew Point Humidity Wind Precip. Elev Updated Type